»·PEaware :: N256Z KCOS-KAMA

N256Z :: KCOS-KAMA

FLIGHT INFORMATION

Flight Status: Arrived
Operator: Privately registered:
United States
More flights under this callsign
Pilot: Gregory A. (9731)
Aircraft: PIPER PA-46-500TP MALIBU MERIDIAN
(P46T)
More flights by this aircraft type
Origin: KCOS City Of Colorado Springs Mun
United States
Destination: KAMA Amarillo Intl
United States
More flights between these airports :: More routes between these airports
Route: +COS6 PUB J17 PNH
File this flight plan on PilotEdge
Remarks:
Altitude:
(Current/Filed)
290ft
Speed:
(Current/Filed)
274kts
Departed: 05-Aug-18 03:12 PM
Arrived: 05-Aug-18 04:20 PM
Distance/Time
Traveled:
259nm/1:07
Distance/Time
To Go:
Arrived

Flight Plot

Page will automatically refresh every two minutes.


Map Options




Map Legend


Flown Route
Filed Route
Departure Airport
Arrival Airport
Navaid (VOR, NDB)
Fix

Horizontal Profiles

Position Reports

Time Latitude Longitude Heading Altitude Ground
Speed
05-Aug-18 14:53 38.823430 -104.711550 0 6188ft 0kts
05-Aug-18 14:54 38.823430 -104.711550 0 6188ft 0kts
05-Aug-18 14:55 38.823431 -104.711550 359 6188ft 0kts
05-Aug-18 14:56 38.823434 -104.711550 359 6188ft 0kts
05-Aug-18 14:57 38.823436 -104.711550 359 6188ft 0kts
05-Aug-18 14:58 38.823439 -104.711550 359 6188ft 0kts
05-Aug-18 14:59 38.823442 -104.711550 359 6188ft 0kts
05-Aug-18 15:00 38.823445 -104.711550 359 6188ft 0kts
05-Aug-18 15:01 38.823447 -104.711550 359 6188ft 0kts
05-Aug-18 15:02 38.823450 -104.711550 359 6188ft 0kts
05-Aug-18 15:03 38.823453 -104.711550 359 6188ft 0kts
05-Aug-18 15:04 38.823456 -104.711550 359 6188ft 0kts
05-Aug-18 15:05 38.823458 -104.711550 359 6188ft 0kts
05-Aug-18 15:06 38.823461 -104.711550 359 6188ft 0kts
05-Aug-18 15:07 38.823464 -104.711550 359 6188ft 0kts
05-Aug-18 15:08 38.823467 -104.711550 359 6188ft 0kts
05-Aug-18 15:09 38.823530 -104.711574 317 6188ft 3kts
05-Aug-18 15:10 38.823917 -104.714008 270 6188ft 9kts
05-Aug-18 15:11 38.823929 -104.714887 270 6188ft 0kts
05-Aug-18 15:12 38.822975 -104.715847 178 6188ft 23kts
05-Aug-18 15:13 38.787066 -104.716373 180 7159ft 157kts
05-Aug-18 15:14 38.756557 -104.696258 85 8535ft 172kts
05-Aug-18 15:15 38.794212 -104.681526 344 10173ft 170kts
05-Aug-18 15:16 38.848497 -104.686734 12 12457ft 184kts
05-Aug-18 15:17 38.863075 -104.636067 125 14128ft 227kts
05-Aug-18 15:18 38.810713 -104.604842 172 15960ft 228kts
05-Aug-18 15:19 38.737493 -104.565822 168 16030ft 229kts
05-Aug-18 15:20 38.686047 -104.535133 167 16039ft 241kts
05-Aug-18 15:21 38.631341 -104.500044 168 16530ft 190kts
05-Aug-18 15:22 38.589189 -104.468888 170 18058ft 177kts
05-Aug-18 15:23 38.539566 -104.434981 170 19762ft 224kts
05-Aug-18 15:24 38.477540 -104.400551 182 21413ft 247kts
05-Aug-18 15:25 38.409984 -104.385852 188 23022ft 247kts
05-Aug-18 15:26 38.343076 -104.376399 192 24617ft 239kts
05-Aug-18 15:27 38.278106 -104.370557 187 26217ft 239kts
05-Aug-18 15:28 38.212558 -104.343377 171 27818ft 259kts
05-Aug-18 15:29 38.147773 -104.298324 164 29203ft 276kts
05-Aug-18 15:30 38.077841 -104.243040 159 29336ft 309kts
05-Aug-18 15:31 38.004693 -104.182740 159 29340ft 316kts
05-Aug-18 15:32 37.930372 -104.122115 159 29344ft 317kts
05-Aug-18 15:33 37.855949 -104.062195 159 29346ft 317kts
05-Aug-18 15:34 37.781394 -104.002628 159 29347ft 317kts
05-Aug-18 15:35 37.706514 -103.943074 159 29346ft 317kts
05-Aug-18 15:36 37.631886 -103.883937 159 29344ft 317kts
05-Aug-18 15:37 37.557235 -103.825081 160 29341ft 316kts
05-Aug-18 15:38 37.482322 -103.766366 160 29339ft 316kts
05-Aug-18 15:39 37.407626 -103.708280 160 29337ft 315kts
05-Aug-18 15:40 37.332528 -103.650803 161 29325ft 315kts
05-Aug-18 15:41 37.258934 -103.590107 152 29316ft 322kts
05-Aug-18 15:42 37.188756 -103.519982 151 29289ft 322kts
05-Aug-18 15:43 37.118140 -103.450388 152 29279ft 321kts
05-Aug-18 15:44 37.047682 -103.382073 152 29094ft 322kts
05-Aug-18 15:45 36.976351 -103.313348 152 28598ft 325kts
05-Aug-18 15:46 36.904408 -103.244155 152 28098ft 325kts
05-Aug-18 15:47 36.832621 -103.175400 152 27599ft 325kts
05-Aug-18 15:48 36.760541 -103.106619 152 27099ft 325kts
05-Aug-18 15:49 36.688653 -103.038230 151 26600ft 325kts
05-Aug-18 15:50 36.617809 -102.970970 152 26097ft 313kts
05-Aug-18 15:51 36.549895 -102.907173 153 25588ft 300kts
05-Aug-18 15:52 36.483252 -102.844942 152 24605ft 297kts
05-Aug-18 15:53 36.417961 -102.783853 152 23605ft 292kts
05-Aug-18 15:54 36.352831 -102.722942 152 22604ft 293kts
05-Aug-18 15:55 36.287522 -102.661709 151 21577ft 294kts
05-Aug-18 15:56 36.222549 -102.600827 151 20378ft 290kts
05-Aug-18 15:57 36.159004 -102.541602 150 19179ft 284kts
05-Aug-18 15:58 36.096078 -102.483186 150 17981ft 282kts
05-Aug-18 15:59 36.033608 -102.425168 149 16779ft 273kts
05-Aug-18 16:00 35.974399 -102.370625 148 15578ft 260kts
05-Aug-18 16:01 35.916908 -102.317918 147 14380ft 255kts
05-Aug-18 16:02 35.860184 -102.265758 146 13178ft 251kts
05-Aug-18 16:03 35.804971 -102.215007 145 11979ft 244kts
05-Aug-18 16:04 35.750658 -102.165159 147 10776ft 242kts
05-Aug-18 16:05 35.698776 -102.117585 149 10188ft 214kts
05-Aug-18 16:06 35.649934 -102.073481 150 9252ft 221kts
05-Aug-18 16:07 35.600360 -102.028021 149 8253ft 220kts
05-Aug-18 16:08 35.552365 -101.984059 147 7331ft 207kts
05-Aug-18 16:09 35.508639 -101.944743 149 7192ft 193kts
05-Aug-18 16:10 35.481177 -101.885915 108 7186ft 203kts
05-Aug-18 16:11 35.466169 -101.820104 108 7187ft 199kts
05-Aug-18 16:12 35.451504 -101.754844 108 7186ft 196kts
05-Aug-18 16:13 35.437870 -101.693504 108 7180ft 168kts
05-Aug-18 16:14 35.426559 -101.640660 108 7188ft 156kts
05-Aug-18 16:15 35.403566 -101.594198 137 6593ft 173kts
05-Aug-18 16:16 35.366798 -101.561790 182 5615ft 161kts
05-Aug-18 16:17 35.328933 -101.587567 226 5290ft 161kts
05-Aug-18 16:18 35.297081 -101.626542 226 5275ft 159kts
05-Aug-18 16:19 35.265745 -101.659841 227 4538ft 137kts
05-Aug-18 16:20 35.236876 -101.692443 224 3857ft 146kts
05-Aug-18 16:21 35.218512 -101.715646 181 3611ft 6kts
05-Aug-18 16:22 35.216819 -101.714744 131 3611ft 8kts
05-Aug-18 16:23 35.218151 -101.712470 41 3611ft 8kts
05-Aug-18 16:24 35.219171 -101.708972 88 3611ft 14kts
05-Aug-18 16:25 35.219283 -101.707440 317 3611ft 0kts
05-Aug-18 16:26 35.219286 -101.707442 317 3611ft 0kts
05-Aug-18 16:27 35.219288 -101.707445 317 3611ft 0kts
05-Aug-18 16:28 35.219317 -101.707478 316 3611ft 0kts
05-Aug-18 16:29 35.219320 -101.707481 316 3611ft 0kts
05-Aug-18 16:30 35.219321 -101.707482 316 3611ft 0kts
05-Aug-18 16:31 35.219321 -101.707482 316 3611ft 0kts

Navigation Log

Ident Type
Flight plan parsing failed, navigation log unavailable